sensor_id;sensor_type;location;lat;lon;timestamp;temperature;humidity
54846;DHT22;53889;50.084;8.646;2022-12-16T00:00:11;-2.50;99.90
54846;DHT22;53889;50.084;8.646;2022-12-16T00:02:39;-2.50;99.90
54846;DHT22;53889;50.084;8.646;2022-12-16T00:05:06;-2.40;99.90
54846;DHT22;53889;50.084;8.646;2022-12-16T00:07:33;-2.40;99.90
54846;DHT22;53889;50.084;8.646;2022-12-16T00:10:00;-2.40;99.90
54846;DHT22;53889;50.084;8.646;2022-12-16T00:12:27;-2.40;99.90
54846;DHT22;53889;50.084;8.646;2022-12-16T00:14:54;-2.40;99.90
54846;DHT22;53889;50.084;8.646;2022-12-16T00:17:20;-2.40;99.90
54846;DHT22;53889;50.084;8.646;2022-12-16T00:19:49;-2.40;99.90
54846;DHT22;53889;50.084;8.646;2022-12-16T00:22:15;-2.30;99.90
54846;DHT22;53889;50.084;8.646;2022-12-16T00:24:42;-2.40;99.90
54846;DHT22;53889;50.084;8.646;2022-12-16T00:27:09;-2.50;99.90
54846;DHT22;53889;50.084;8.646;2022-12-16T00:29:36;-2.50;99.90
54846;DHT22;53889;50.084;8.646;2022-12-16T00:32:04;-2.50;99.90
54846;DHT22;53889;50.084;8.646;2022-12-16T00:34:31;-2.40;99.90
54846;DHT22;53889;50.084;8.646;2022-12-16T00:36:59;-2.50;99.90
54846;DHT22;53889;50.084;8.646;2022-12-16T00:39:25;-2.50;99.90
54846;DHT22;53889;50.084;8.646;2022-12-16T00:41:53;-2.50;99.90
54846;DHT22;53889;50.084;8.646;2022-12-16T00:44:20;-2.40;99.90
54846;DHT22;53889;50.084;8.646;2022-12-16T00:46:46;-2.40;99.90
54846;DHT22;53889;50.084;8.646;2022-12-16T00:49:13;-2.40;99.90
54846;DHT22;53889;50.084;8.646;2022-12-16T00:51:40;-2.50;99.90
54846;DHT22;53889;50.084;8.646;2022-12-16T00:54:08;-2.50;99.90
54846;DHT22;53889;50.084;8.646;2022-12-16T00:56:34;-2.50;99.90
54846;DHT22;53889;50.084;8.646;2022-12-16T00:59:01;-2.50;99.90
54846;DHT22;53889;50.084;8.646;2022-12-16T01:01:28;-2.50;99.90
54846;DHT22;53889;50.084;8.646;2022-12-16T01:03:55;-2.50;99.90
54846;DHT22;53889;50.084;8.646;2022-12-16T01:06:22;-2.50;99.90
54846;DHT22;53889;50.084;8.646;2022-12-16T01:08:49;-2.50;99.90
54846;DHT22;53889;50.084;8.646;2022-12-16T01:11:18;-2.60;99.90
54846;DHT22;53889;50.084;8.646;2022-12-16T01:13:48;-2.60;99.90
54846;DHT22;53889;50.084;8.646;2022-12-16T01:16:15;-2.60;99.90
54846;DHT22;53889;50.084;8.646;2022-12-16T01:18:42;-2.50;99.90
54846;DHT22;53889;50.084;8.646;2022-12-16T01:21:11;-2.60;99.90
54846;DHT22;53889;50.084;8.646;2022-12-16T01:23:38;-2.50;99.90
54846;DHT22;53889;50.084;8.646;2022-12-16T01:26:05;-2.50;99.90
54846;DHT22;53889;50.084;8.646;2022-12-16T01:28:33;-2.50;99.90
54846;DHT22;53889;50.084;8.646;2022-12-16T01:31:00;-2.50;99.90
54846;DHT22;53889;50.084;8.646;2022-12-16T01:33:27;-2.50;99.90
54846;DHT22;53889;50.084;8.646;2022-12-16T01:35:59;-2.50;99.90
54846;DHT22;53889;50.084;8.646;2022-12-16T01:38:26;-2.50;99.90
54846;DHT22;53889;50.084;8.646;2022-12-16T01:40:53;-2.50;99.90
54846;DHT22;53889;50.084;8.646;2022-12-16T01:43:23;-2.60;99.90
54846;DHT22;53889;50.084;8.646;2022-12-16T01:45:52;-2.50;99.90
54846;DHT22;53889;50.084;8.646;2022-12-16T01:48:30;-2.50;99.90
54846;DHT22;53889;50.084;8.646;2022-12-16T01:51:05;-2.40;99.90
54846;DHT22;53889;50.084;8.646;2022-12-16T01:53:33;-2.50;99.90
54846;DHT22;53889;50.084;8.646;2022-12-16T01:56:01;-2.40;99.90
54846;DHT22;53889;50.084;8.646;2022-12-16T01:58:30;-2.50;99.90
54846;DHT22;53889;50.084;8.646;2022-12-16T02:01:01;-2.50;99.90
54846;DHT22;53889;50.084;8.646;2022-12-16T02:03:31;-2.60;99.90
54846;DHT22;53889;50.084;8.646;2022-12-16T02:05:59;-2.60;99.90
54846;DHT22;53889;50.084;8.646;2022-12-16T02:08:26;-2.60;99.90
54846;DHT22;53889;50.084;8.646;2022-12-16T02:11:07;-2.60;99.90
54846;DHT22;53889;50.084;8.646;2022-12-16T02:13:48;-2.60;99.90
54846;DHT22;53889;50.084;8.646;2022-12-16T02:16:23;-2.60;99.90
54846;DHT22;53889;50.084;8.646;2022-12-16T02:18:56;-2.60;99.90
54846;DHT22;53889;50.084;8.646;2022-12-16T02:21:38;-2.70;99.90
54846;DHT22;53889;50.084;8.646;2022-12-16T02:24:24;-2.70;99.90
54846;DHT22;53889;50.084;8.646;2022-12-16T02:27:18;-2.70;99.90
54846;DHT22;53889;50.084;8.646;2022-12-16T02:30:04;-2.70;99.90
54846;DHT22;53889;50.084;8.646;2022-12-16T02:32:43;-2.70;99.90
54846;DHT22;53889;50.084;8.646;2022-12-16T02:35:16;-2.80;99.90
54846;DHT22;53889;50.084;8.646;2022-12-16T02:37:51;-2.70;99.90
54846;DHT22;53889;50.084;8.646;2022-12-16T02:40:23;-2.80;99.90
54846;DHT22;53889;50.084;8.646;2022-12-16T02:42:57;-2.80;99.90
54846;DHT22;53889;50.084;8.646;2022-12-16T02:45:28;-2.80;99.90
54846;DHT22;53889;50.084;8.646;2022-12-16T02:47:57;-2.80;99.90
54846;DHT22;53889;50.084;8.646;2022-12-16T02:50:27;-2.80;99.90
54846;DHT22;53889;50.084;8.646;2022-12-16T02:52:57;-2.70;99.90
54846;DHT22;53889;50.084;8.646;2022-12-16T02:55:29;-2.80;99.90
54846;DHT22;53889;50.084;8.646;2022-12-16T02:58:08;-2.70;99.90
54846;DHT22;53889;50.084;8.646;2022-12-16T03:00:42;-2.70;99.90
54846;DHT22;53889;50.084;8.646;2022-12-16T03:03:17;-2.70;99.90
54846;DHT22;53889;50.084;8.646;2022-12-16T03:05:47;-2.60;99.90
54846;DHT22;53889;50.084;8.646;2022-12-16T03:08:18;-2.60;99.90
54846;DHT22;53889;50.084;8.646;2022-12-16T03:10:49;-2.60;99.90
54846;DHT22;53889;50.084;8.646;2022-12-16T03:13:18;-2.60;99.90
54846;DHT22;53889;50.084;8.646;2022-12-16T03:15:46;-2.50;99.90
54846;DHT22;53889;50.084;8.646;2022-12-16T03:18:16;-2.50;99.90
54846;DHT22;53889;50.084;8.646;2022-12-16T03:20:46;-2.50;99.90
54846;DHT22;53889;50.084;8.646;2022-12-16T03:23:18;-2.50;99.90
54846;DHT22;53889;50.084;8.646;2022-12-16T03:25:48;-2.50;99.90
54846;DHT22;53889;50.084;8.646;2022-12-16T03:28:26;-2.50;99.90
54846;DHT22;53889;50.084;8.646;2022-12-16T03:31:02;-1.50;99.90
54846;DHT22;53889;50.084;8.646;2022-12-16T03:33:34;-2.50;99.90
54846;DHT22;53889;50.084;8.646;2022-12-16T03:36:08;-2.50;99.90
54846;DHT22;53889;50.084;8.646;2022-12-16T03:38:36;-2.50;99.90
54846;DHT22;53889;50.084;8.646;2022-12-16T03:41:05;-1.60;99.90
54846;DHT22;53889;50.084;8.646;2022-12-16T03:43:32;-2.60;99.90
54846;DHT22;53889;50.084;8.646;2022-12-16T03:46:01;-2.50;99.90
54846;DHT22;53889;50.084;8.646;2022-12-16T03:48:31;-2.50;99.90
54846;DHT22;53889;50.084;8.646;2022-12-16T03:50:59;-2.50;99.90
54846;DHT22;53889;50.084;8.646;2022-12-16T03:53:25;-2.50;99.90
54846;DHT22;53889;50.084;8.646;2022-12-16T03:55:52;-2.60;99.90
54846;DHT22;53889;50.084;8.646;2022-12-16T03:58:19;-2.60;99.90
54846;DHT22;53889;50.084;8.646;2022-12-16T04:00:46;-2.50;99.90
54846;DHT22;53889;50.084;8.646;2022-12-16T04:03:13;-2.60;99.90
54846;DHT22;53889;50.084;8.646;2022-12-16T04:05:44;-2.60;99.90
54846;DHT22;53889;50.084;8.646;2022-12-16T04:08:10;-2.60;99.90
54846;DHT22;53889;50.084;8.646;2022-12-16T04:10:37;-2.60;99.90
54846;DHT22;53889;50.084;8.646;2022-12-16T04:13:21;-2.60;99.90
54846;DHT22;53889;50.084;8.646;2022-12-16T04:16:07;-2.50;99.90
54846;DHT22;53889;50.084;8.646;2022-12-16T04:18:52;-2.60;99.90
54846;DHT22;53889;50.084;8.646;2022-12-16T04:21:49;-2.60;99.90
54846;DHT22;53889;50.084;8.646;2022-12-16T04:24:33;-2.60;99.90
54846;DHT22;53889;50.084;8.646;2022-12-16T04:27:00;-2.70;99.90
54846;DHT22;53889;50.084;8.646;2022-12-16T04:29:45;-2.70;99.90
54846;DHT22;53889;50.084;8.646;2022-12-16T04:32:30;-2.70;99.90
54846;DHT22;53889;50.084;8.646;2022-12-16T04:35:17;-2.70;99.90
54846;DHT22;53889;50.084;8.646;2022-12-16T04:38:03;-2.70;99.90
54846;DHT22;53889;50.084;8.646;2022-12-16T04:40:47;-2.70;99.90
54846;DHT22;53889;50.084;8.646;2022-12-16T04:43:32;-2.70;99.90
54846;DHT22;53889;50.084;8.646;2022-12-16T04:46:16;-2.70;99.90
54846;DHT22;53889;50.084;8.646;2022-12-16T04:49:01;-2.70;99.90
54846;DHT22;53889;50.084;8.646;2022-12-16T04:51:45;-2.70;99.90
54846;DHT22;53889;50.084;8.646;2022-12-16T04:54:31;-2.70;99.90
54846;DHT22;53889;50.084;8.646;2022-12-16T04:57:15;-2.70;99.90
54846;DHT22;53889;50.084;8.646;2022-12-16T04:59:59;-2.70;99.90
54846;DHT22;53889;50.084;8.646;2022-12-16T05:02:47;-2.70;99.90
54846;DHT22;53889;50.084;8.646;2022-12-16T05:05:31;-2.80;99.90
54846;DHT22;53889;50.084;8.646;2022-12-16T05:08:15;-2.80;99.90
54846;DHT22;53889;50.084;8.646;2022-12-16T05:11:01;-2.80;99.90
54846;DHT22;53889;50.084;8.646;2022-12-16T05:13:45;-2.80;99.90
54846;DHT22;53889;50.084;8.646;2022-12-16T05:16:29;-2.80;99.90
54846;DHT22;53889;50.084;8.646;2022-12-16T05:19:14;-2.80;99.90
54846;DHT22;53889;50.084;8.646;2022-12-16T05:21:58;-2.90;99.90
54846;DHT22;53889;50.084;8.646;2022-12-16T05:24:42;-2.80;99.90
54846;DHT22;53889;50.084;8.646;2022-12-16T05:27:28;-2.80;99.90
54846;DHT22;53889;50.084;8.646;2022-12-16T05:30:12;-2.80;99.90
54846;DHT22;53889;50.084;8.646;2022-12-16T05:32:57;-2.90;99.90
54846;DHT22;53889;50.084;8.646;2022-12-16T05:35:41;-2.90;99.90
54846;DHT22;53889;50.084;8.646;2022-12-16T05:38:25;-2.90;99.90
54846;DHT22;53889;50.084;8.646;2022-12-16T05:41:10;-2.90;99.90
54846;DHT22;53889;50.084;8.646;2022-12-16T05:43:55;-3.00;99.90
54846;DHT22;53889;50.084;8.646;2022-12-16T05:46:39;-2.90;99.90
54846;DHT22;53889;50.084;8.646;2022-12-16T05:49:26;-3.00;99.90
54846;DHT22;53889;50.084;8.646;2022-12-16T05:52:10;-2.90;99.90
54846;DHT22;53889;50.084;8.646;2022-12-16T05:54:55;-2.90;99.90
54846;DHT22;53889;50.084;8.646;2022-12-16T05:57:39;-3.00;99.90
54846;DHT22;53889;50.084;8.646;2022-12-16T06:00:25;-3.10;99.90
54846;DHT22;53889;50.084;8.646;2022-12-16T06:03:09;-3.10;99.90
54846;DHT22;53889;50.084;8.646;2022-12-16T06:05:53;-3.10;99.90
54846;DHT22;53889;50.084;8.646;2022-12-16T06:08:38;-3.10;99.90
54846;DHT22;53889;50.084;8.646;2022-12-16T06:11:22;-3.10;99.90
54846;DHT22;53889;50.084;8.646;2022-12-16T06:14:06;-3.10;99.90
54846;DHT22;53889;50.084;8.646;2022-12-16T06:16:52;-3.10;99.90
54846;DHT22;53889;50.084;8.646;2022-12-16T06:19:37;-3.20;99.90
54846;DHT22;53889;50.084;8.646;2022-12-16T06:22:21;-3.20;99.90
54846;DHT22;53889;50.084;8.646;2022-12-16T06:25:06;-3.20;99.90
54846;DHT22;53889;50.084;8.646;2022-12-16T06:27:50;-3.20;99.90
54846;DHT22;53889;50.084;8.646;2022-12-16T06:30:35;-3.30;99.90
54846;DHT22;53889;50.084;8.646;2022-12-16T06:33:21;-3.20;99.90
54846;DHT22;53889;50.084;8.646;2022-12-16T06:36:05;-3.30;99.90
54846;DHT22;53889;50.084;8.646;2022-12-16T06:38:50;-3.30;99.90
54846;DHT22;53889;50.084;8.646;2022-12-16T06:41:31;-3.30;99.90
54846;DHT22;53889;50.084;8.646;2022-12-16T06:44:15;-3.30;99.90
54846;DHT22;53889;50.084;8.646;2022-12-16T06:47:14;-3.20;99.90
54846;DHT22;53889;50.084;8.646;2022-12-16T06:50:00;-3.30;99.90
54846;DHT22;53889;50.084;8.646;2022-12-16T06:52:44;-3.40;99.90
54846;DHT22;53889;50.084;8.646;2022-12-16T06:55:29;-3.40;99.90
54846;DHT22;53889;50.084;8.646;2022-12-16T06:58:14;-3.40;99.90
54846;DHT22;53889;50.084;8.646;2022-12-16T07:00:58;-3.40;99.90
54846;DHT22;53889;50.084;8.646;2022-12-16T07:03:42;-3.40;99.90
54846;DHT22;53889;50.084;8.646;2022-12-16T07:06:28;-3.50;99.90
54846;DHT22;53889;50.084;8.646;2022-12-16T07:09:13;-3.50;99.90
54846;DHT22;53889;50.084;8.646;2022-12-16T07:11:57;-3.40;99.90
54846;DHT22;53889;50.084;8.646;2022-12-16T07:14:41;-3.50;99.90
54846;DHT22;53889;50.084;8.646;2022-12-16T07:17:26;-3.50;99.90
54846;DHT22;53889;50.084;8.646;2022-12-16T07:20:11;-3.50;99.90
54846;DHT22;53889;50.084;8.646;2022-12-16T07:22:57;-3.50;99.90
54846;DHT22;53889;50.084;8.646;2022-12-16T07:25:41;-3.50;99.90
54846;DHT22;53889;50.084;8.646;2022-12-16T07:28:26;-3.50;99.90
54846;DHT22;53889;50.084;8.646;2022-12-16T07:31:10;-3.40;99.90
54846;DHT22;53889;50.084;8.646;2022-12-16T07:33:54;-3.50;99.90
54846;DHT22;53889;50.084;8.646;2022-12-16T07:36:39;-3.50;99.90
54846;DHT22;53889;50.084;8.646;2022-12-16T07:39:25;-3.50;99.90
54846;DHT22;53889;50.084;8.646;2022-12-16T07:42:09;-3.50;99.90
54846;DHT22;53889;50.084;8.646;2022-12-16T07:44:53;-3.40;99.90
54846;DHT22;53889;50.084;8.646;2022-12-16T07:47:37;-3.40;99.90
54846;DHT22;53889;50.084;8.646;2022-12-16T07:50:28;-3.50;99.90
54846;DHT22;53889;50.084;8.646;2022-12-16T07:53:13;-3.40;99.90
54846;DHT22;53889;50.084;8.646;2022-12-16T07:55:58;-3.40;99.90
54846;DHT22;53889;50.084;8.646;2022-12-16T07:58:42;-3.40;99.90
54846;DHT22;53889;50.084;8.646;2022-12-16T08:01:27;-3.40;99.90
54846;DHT22;53889;50.084;8.646;2022-12-16T08:04:11;-3.30;99.90
54846;DHT22;53889;50.084;8.646;2022-12-16T08:06:52;-3.30;99.90
54846;DHT22;53889;50.084;8.646;2022-12-16T08:09:36;-3.30;99.90
54846;DHT22;53889;50.084;8.646;2022-12-16T08:12:22;-3.30;99.90
54846;DHT22;53889;50.084;8.646;2022-12-16T08:15:07;-3.40;99.90
54846;DHT22;53889;50.084;8.646;2022-12-16T08:17:52;-3.20;99.90
54846;DHT22;53889;50.084;8.646;2022-12-16T08:20:37;-3.20;99.90
54846;DHT22;53889;50.084;8.646;2022-12-16T08:23:22;-3.20;99.90
54846;DHT22;53889;50.084;8.646;2022-12-16T08:26:06;-3.20;99.90
54846;DHT22;53889;50.084;8.646;2022-12-16T08:28:52;-3.10;99.90
54846;DHT22;53889;50.084;8.646;2022-12-16T08:31:36;-3.10;99.90
54846;DHT22;53889;50.084;8.646;2022-12-16T08:34:20;-3.00;99.90
54846;DHT22;53889;50.084;8.646;2022-12-16T08:37:05;-3.00;99.90
54846;DHT22;53889;50.084;8.646;2022-12-16T08:39:50;-2.90;99.90
54846;DHT22;53889;50.084;8.646;2022-12-16T08:42:34;-2.80;99.90
54846;DHT22;53889;50.084;8.646;2022-12-16T08:45:20;-2.70;99.90
54846;DHT22;53889;50.084;8.646;2022-12-16T08:48:04;-2.50;99.90
54846;DHT22;53889;50.084;8.646;2022-12-16T08:50:49;-2.40;99.90
54846;DHT22;53889;50.084;8.646;2022-12-16T08:53:33;-2.40;99.90
54846;DHT22;53889;50.084;8.646;2022-12-16T08:56:17;-2.30;99.90
54846;DHT22;53889;50.084;8.646;2022-12-16T08:59:02;-2.20;99.90
54846;DHT22;53889;50.084;8.646;2022-12-16T09:01:48;-2.20;99.90
54846;DHT22;53889;50.084;8.646;2022-12-16T09:04:32;-2.10;99.90
54846;DHT22;53889;50.084;8.646;2022-12-16T09:07:17;-2.10;99.90
54846;DHT22;53889;50.084;8.646;2022-12-16T09:10:02;-2.10;99.90
54846;DHT22;53889;50.084;8.646;2022-12-16T09:12:47;-2.00;99.90
54846;DHT22;53889;50.084;8.646;2022-12-16T09:15:31;-1.90;99.90
54846;DHT22;53889;50.084;8.646;2022-12-16T09:18:17;-1.90;99.90
54846;DHT22;53889;50.084;8.646;2022-12-16T09:21:01;-1.90;99.90
54846;DHT22;53889;50.084;8.646;2022-12-16T09:23:46;-1.80;99.90
54846;DHT22;53889;50.084;8.646;2022-12-16T09:26:31;-1.80;99.90
54846;DHT22;53889;50.084;8.646;2022-12-16T09:29:15;-1.70;99.90
54846;DHT22;53889;50.084;8.646;2022-12-16T09:32:00;-1.50;99.90
54846;DHT22;53889;50.084;8.646;2022-12-16T09:34:45;-1.60;99.90
54846;DHT22;53889;50.084;8.646;2022-12-16T09:37:30;-1.50;99.90
54846;DHT22;53889;50.084;8.646;2022-12-16T09:40:15;-1.50;99.90
54846;DHT22;53889;50.084;8.646;2022-12-16T09:43:05;-1.50;99.90
54846;DHT22;53889;50.084;8.646;2022-12-16T09:45:56;-1.50;99.90
54846;DHT22;53889;50.084;8.646;2022-12-16T09:48:48;-1.40;99.90
54846;DHT22;53889;50.084;8.646;2022-12-16T09:51:36;-1.40;99.90
54846;DHT22;53889;50.084;8.646;2022-12-16T09:54:25;-1.40;99.90
54846;DHT22;53889;50.084;8.646;2022-12-16T09:57:11;-1.30;99.90
54846;DHT22;53889;50.084;8.646;2022-12-16T09:59:59;-1.30;99.90
54846;DHT22;53889;50.084;8.646;2022-12-16T10:02:46;-1.20;99.90
54846;DHT22;53889;50.084;8.646;2022-12-16T10:05:37;-1.20;99.90
54846;DHT22;53889;50.084;8.646;2022-12-16T10:08:33;-1.10;99.90
54846;DHT22;53889;50.084;8.646;2022-12-16T10:11:24;-1.10;99.90
54846;DHT22;53889;50.084;8.646;2022-12-16T10:14:13;-1.10;99.90
54846;DHT22;53889;50.084;8.646;2022-12-16T10:17:10;-1.00;99.90
54846;DHT22;53889;50.084;8.646;2022-12-16T10:20:00;-0.90;99.90
54846;DHT22;53889;50.084;8.646;2022-12-16T10:22:51;-0.80;99.90
54846;DHT22;53889;50.084;8.646;2022-12-16T10:25:44;-0.90;99.90
54846;DHT22;53889;50.084;8.646;2022-12-16T10:28:43;-0.80;99.90
54846;DHT22;53889;50.084;8.646;2022-12-16T10:31:28;-0.70;99.90
54846;DHT22;53889;50.084;8.646;2022-12-16T10:34:15;-0.70;99.90
54846;DHT22;53889;50.084;8.646;2022-12-16T10:37:00;-0.60;99.90
54846;DHT22;53889;50.084;8.646;2022-12-16T10:39:48;-0.60;99.90
54846;DHT22;53889;50.084;8.646;2022-12-16T10:42:36;-0.40;99.90
54846;DHT22;53889;50.084;8.646;2022-12-16T10:45:27;-0.40;99.90
54846;DHT22;53889;50.084;8.646;2022-12-16T10:48:12;-0.40;99.90
54846;DHT22;53889;50.084;8.646;2022-12-16T10:50:58;-0.40;99.90
54846;DHT22;53889;50.084;8.646;2022-12-16T10:53:44;-0.40;99.90
54846;DHT22;53889;50.084;8.646;2022-12-16T10:56:41;-0.30;99.90
54846;DHT22;53889;50.084;8.646;2022-12-16T10:59:36;-0.30;99.90
54846;DHT22;53889;50.084;8.646;2022-12-16T11:02:23;-0.40;99.90
54846;DHT22;53889;50.084;8.646;2022-12-16T11:05:27;-0.40;99.90
54846;DHT22;53889;50.084;8.646;2022-12-16T11:08:23;-0.30;99.90
54846;DHT22;53889;50.084;8.646;2022-12-16T11:11:12;-0.20;99.90
54846;DHT22;53889;50.084;8.646;2022-12-16T11:14:14;-0.20;99.90
54846;DHT22;53889;50.084;8.646;2022-12-16T11:17:19;-0.10;99.90
54846;DHT22;53889;50.084;8.646;2022-12-16T11:20:13;-0.10;99.90
54846;DHT22;53889;50.084;8.646;2022-12-16T11:23:15;0.00;99.90
54846;DHT22;53889;50.084;8.646;2022-12-16T11:26:05;0.00;99.90
54846;DHT22;53889;50.084;8.646;2022-12-16T11:29:09;0.50;99.90
54846;DHT22;53889;50.084;8.646;2022-12-16T11:32:00;0.70;99.90
54846;DHT22;53889;50.084;8.646;2022-12-16T11:34:51;0.60;99.90
54846;DHT22;53889;50.084;8.646;2022-12-16T11:37:37;0.60;99.90
54846;DHT22;53889;50.084;8.646;2022-12-16T11:40:22;0.40;99.90
54846;DHT22;53889;50.084;8.646;2022-12-16T11:43:09;0.40;99.90
54846;DHT22;53889;50.084;8.646;2022-12-16T11:45:56;0.20;99.90
54846;DHT22;53889;50.084;8.646;2022-12-16T11:48:45;0.30;99.90
54846;DHT22;53889;50.084;8.646;2022-12-16T11:51:34;0.20;99.90
54846;DHT22;53889;50.084;8.646;2022-12-16T11:54:22;0.10;99.90
54846;DHT22;53889;50.084;8.646;2022-12-16T11:57:16;0.10;99.90
54846;DHT22;53889;50.084;8.646;2022-12-16T12:00:02;0.00;99.90
54846;DHT22;53889;50.084;8.646;2022-12-16T12:02:52;0.00;99.90
54846;DHT22;53889;50.084;8.646;2022-12-16T12:05:41;0.00;99.90
54846;DHT22;53889;50.084;8.646;2022-12-16T12:08:34;0.10;99.90
54846;DHT22;53889;50.084;8.646;2022-12-16T12:11:25;0.10;99.90
54846;DHT22;53889;50.084;8.646;2022-12-16T12:14:18;0.10;99.90
54846;DHT22;53889;50.084;8.646;2022-12-16T12:17:12;0.30;99.90
54846;DHT22;53889;50.084;8.646;2022-12-16T12:20:15;0.40;99.90
54846;DHT22;53889;50.084;8.646;2022-12-16T12:23:06;0.50;99.90
54846;DHT22;53889;50.084;8.646;2022-12-16T12:25:56;0.50;99.90
54846;DHT22;53889;50.084;8.646;2022-12-16T12:28:50;0.40;99.90
54846;DHT22;53889;50.084;8.646;2022-12-16T12:31:42;0.50;99.90
54846;DHT22;53889;50.084;8.646;2022-12-16T12:34:32;0.50;99.90
54846;DHT22;53889;50.084;8.646;2022-12-16T12:37:23;0.60;99.90
54846;DHT22;53889;50.084;8.646;2022-12-16T12:40:21;0.80;99.90
54846;DHT22;53889;50.084;8.646;2022-12-16T12:43:17;1.20;99.90
54846;DHT22;53889;50.084;8.646;2022-12-16T12:46:12;2.00;99.90
54846;DHT22;53889;50.084;8.646;2022-12-16T12:49:06;2.80;99.90
54846;DHT22;53889;50.084;8.646;2022-12-16T12:51:57;3.70;99.90
54846;DHT22;53889;50.084;8.646;2022-12-16T12:54:47;3.60;99.90
54846;DHT22;53889;50.084;8.646;2022-12-16T12:57:37;3.70;99.90
54846;DHT22;53889;50.084;8.646;2022-12-16T13:00:25;4.10;99.90
54846;DHT22;53889;50.084;8.646;2022-12-16T13:03:15;4.40;99.90
54846;DHT22;53889;50.084;8.646;2022-12-16T13:06:06;4.50;99.90
54846;DHT22;53889;50.084;8.646;2022-12-16T13:08:55;4.80;99.90
54846;DHT22;53889;50.084;8.646;2022-12-16T13:12:21;4.90;99.40
54846;DHT22;53889;50.084;8.646;2022-12-16T13:15:07;5.10;99.00
54846;DHT22;53889;50.084;8.646;2022-12-16T13:18:21;4.90;99.00
54846;DHT22;53889;50.084;8.646;2022-12-16T13:24:33;4.40;99.30
54846;DHT22;53889;50.084;8.646;2022-12-16T13:27:19;4.50;99.50
54846;DHT22;53889;50.084;8.646;2022-12-16T13:30:16;4.80;99.00
54846;DHT22;53889;50.084;8.646;2022-12-16T13:33:03;4.60;99.30
54846;DHT22;53889;50.084;8.646;2022-12-16T13:35:54;4.40;99.40
54846;DHT22;53889;50.084;8.646;2022-12-16T13:38:44;4.40;99.80
54846;DHT22;53889;50.084;8.646;2022-12-16T13:41:50;4.20;99.60
54846;DHT22;53889;50.084;8.646;2022-12-16T13:44:54;4.10;99.90
54846;DHT22;53889;50.084;8.646;2022-12-16T13:48:03;4.10;99.90
54846;DHT22;53889;50.084;8.646;2022-12-16T13:50:50;4.10;99.90
54846;DHT22;53889;50.084;8.646;2022-12-16T13:53:42;3.80;99.90
54846;DHT22;53889;50.084;8.646;2022-12-16T13:56:33;3.60;99.90
54846;DHT22;53889;50.084;8.646;2022-12-16T13:59:21;2.90;99.90
54846;DHT22;53889;50.084;8.646;2022-12-16T14:02:18;2.80;99.90
54846;DHT22;53889;50.084;8.646;2022-12-16T14:05:15;2.90;99.90
54846;DHT22;53889;50.084;8.646;2022-12-16T14:08:00;2.70;99.90
54846;DHT22;53889;50.084;8.646;2022-12-16T14:10:53;2.80;99.90
54846;DHT22;53889;50.084;8.646;2022-12-16T14:13:42;2.50;99.90
54846;DHT22;53889;50.084;8.646;2022-12-16T14:16:35;2.50;99.90
54846;DHT22;53889;50.084;8.646;2022-12-16T14:19:27;2.30;99.90
54846;DHT22;53889;50.084;8.646;2022-12-16T14:22:26;2.20;99.90
54846;DHT22;53889;50.084;8.646;2022-12-16T14:25:14;2.10;99.90
54846;DHT22;53889;50.084;8.646;2022-12-16T14:28:07;1.80;99.90
54846;DHT22;53889;50.084;8.646;2022-12-16T14:31:02;1.50;99.90
54846;DHT22;53889;50.084;8.646;2022-12-16T14:33:51;1.20;99.90
54846;DHT22;53889;50.084;8.646;2022-12-16T14:36:37;1.10;99.90
54846;DHT22;53889;50.084;8.646;2022-12-16T14:39:27;1.00;99.90
54846;DHT22;53889;50.084;8.646;2022-12-16T14:42:17;0.80;99.90
54846;DHT22;53889;50.084;8.646;2022-12-16T14:45:04;0.70;99.90
54846;DHT22;53889;50.084;8.646;2022-12-16T14:48:13;0.50;99.90
54846;DHT22;53889;50.084;8.646;2022-12-16T14:51:13;0.40;99.90
54846;DHT22;53889;50.084;8.646;2022-12-16T14:54:14;0.40;99.90
54846;DHT22;53889;50.084;8.646;2022-12-16T14:56:59;0.40;99.90
54846;DHT22;53889;50.084;8.646;2022-12-16T14:59:43;0.40;99.90
54846;DHT22;53889;50.084;8.646;2022-12-16T15:02:31;0.30;99.90
54846;DHT22;53889;50.084;8.646;2022-12-16T15:05:16;0.20;99.90
54846;DHT22;53889;50.084;8.646;2022-12-16T15:08:01;0.00;99.90
54846;DHT22;53889;50.084;8.646;2022-12-16T15:10:46;0.10;99.90
54846;DHT22;53889;50.084;8.646;2022-12-16T15:13:33;1.40;99.90
54846;DHT22;53889;50.084;8.646;2022-12-16T15:16:25;-0.10;99.90
54846;DHT22;53889;50.084;8.646;2022-12-16T15:19:18;-0.10;99.90
54846;DHT22;53889;50.084;8.646;2022-12-16T15:22:13;-0.10;99.90
54846;DHT22;53889;50.084;8.646;2022-12-16T15:24:59;-0.10;99.90
54846;DHT22;53889;50.084;8.646;2022-12-16T15:27:52;-0.20;99.90
54846;DHT22;53889;50.084;8.646;2022-12-16T15:30:38;-0.20;99.90
54846;DHT22;53889;50.084;8.646;2022-12-16T15:33:25;-0.30;99.90
54846;DHT22;53889;50.084;8.646;2022-12-16T15:36:23;-0.20;99.90
54846;DHT22;53889;50.084;8.646;2022-12-16T15:39:09;-0.30;99.90
54846;DHT22;53889;50.084;8.646;2022-12-16T15:41:54;-0.30;99.90
54846;DHT22;53889;50.084;8.646;2022-12-16T15:44:45;-0.40;99.90
54846;DHT22;53889;50.084;8.646;2022-12-16T15:47:32;-0.40;99.90
54846;DHT22;53889;50.084;8.646;2022-12-16T15:50:20;-0.40;99.90
54846;DHT22;53889;50.084;8.646;2022-12-16T15:53:27;-0.50;99.90
54846;DHT22;53889;50.084;8.646;2022-12-16T15:56:19;-0.50;99.90
54846;DHT22;53889;50.084;8.646;2022-12-16T15:59:29;-0.60;99.90
54846;DHT22;53889;50.084;8.646;2022-12-16T16:02:24;-0.70;99.90
54846;DHT22;53889;50.084;8.646;2022-12-16T16:05:17;-0.70;99.90
54846;DHT22;53889;50.084;8.646;2022-12-16T16:08:02;-0.80;99.90
54846;DHT22;53889;50.084;8.646;2022-12-16T16:10:48;-0.80;99.90
54846;DHT22;53889;50.084;8.646;2022-12-16T16:13:32;-0.90;99.90
54846;DHT22;53889;50.084;8.646;2022-12-16T16:16:17;-0.90;99.90
54846;DHT22;53889;50.084;8.646;2022-12-16T16:19:02;-0.90;99.90
54846;DHT22;53889;50.084;8.646;2022-12-16T16:21:46;-0.80;99.90
54846;DHT22;53889;50.084;8.646;2022-12-16T16:24:31;-0.80;99.90
54846;DHT22;53889;50.084;8.646;2022-12-16T16:27:17;-0.80;99.90
54846;DHT22;53889;50.084;8.646;2022-12-16T16:30:02;-0.90;99.90
54846;DHT22;53889;50.084;8.646;2022-12-16T16:32:46;-1.00;99.90
54846;DHT22;53889;50.084;8.646;2022-12-16T16:35:33;-1.10;99.90
54846;DHT22;53889;50.084;8.646;2022-12-16T16:38:18;-1.10;99.90
54846;DHT22;53889;50.084;8.646;2022-12-16T16:41:13;-1.10;99.90
54846;DHT22;53889;50.084;8.646;2022-12-16T16:43:59;-1.20;99.90
54846;DHT22;53889;50.084;8.646;2022-12-16T16:46:45;-1.10;99.90
54846;DHT22;53889;50.084;8.646;2022-12-16T16:49:31;-1.20;99.90
54846;DHT22;53889;50.084;8.646;2022-12-16T16:52:18;-1.10;99.90
54846;DHT22;53889;50.084;8.646;2022-12-16T16:55:03;-1.10;99.90
54846;DHT22;53889;50.084;8.646;2022-12-16T16:57:47;-1.10;99.90
54846;DHT22;53889;50.084;8.646;2022-12-16T17:00:33;-1.20;99.90
54846;DHT22;53889;50.084;8.646;2022-12-16T17:03:18;-1.40;99.90
54846;DHT22;53889;50.084;8.646;2022-12-16T17:06:03;-1.10;99.90
54846;DHT22;53889;50.084;8.646;2022-12-16T17:08:47;-1.10;99.90
54846;DHT22;53889;50.084;8.646;2022-12-16T17:11:32;-1.10;99.90
54846;DHT22;53889;50.084;8.646;2022-12-16T17:14:18;-1.20;99.90
54846;DHT22;53889;50.084;8.646;2022-12-16T17:17:04;-1.30;99.90
54846;DHT22;53889;50.084;8.646;2022-12-16T17:19:48;-1.30;99.90